sensor_id;sensor_type;location;lat;lon;timestamp;pressure;altitude;pressure_sealevel;temperature;humidity
80566;BME280;69915;54.862;10.730;2023-08-12T00:01:05;101570.91;;;18.14;87.09
80566;BME280;69915;54.862;10.730;2023-08-12T00:03:30;101590.78;;;18.33;86.59
80566;BME280;69915;54.862;10.730;2023-08-12T00:05:57;101588.84;;;18.25;86.86
80566;BME280;69915;54.862;10.730;2023-08-12T00:08:25;101576.94;;;18.16;86.90
80566;BME280;69915;54.862;10.730;2023-08-12T00:10:51;101575.78;;;18.17;86.95
80566;BME280;69915;54.862;10.730;2023-08-12T00:13:16;101573.53;;;18.19;86.58
80566;BME280;69915;54.862;10.730;2023-08-12T00:15:43;101566.19;;;18.14;86.83
80566;BME280;69915;54.862;10.730;2023-08-12T00:18:09;101573.53;;;18.19;86.97
80566;BME280;69915;54.862;10.730;2023-08-12T00:20:35;101553.81;;;18.12;86.88
80566;BME280;69915;54.862;10.730;2023-08-12T00:23:00;101575.31;;;18.23;87.02
80566;BME280;69915;54.862;10.730;2023-08-12T00:25:26;101564.41;;;18.18;87.06
80566;BME280;69915;54.862;10.730;2023-08-12T00:27:52;101554.94;;;18.11;87.15
80566;BME280;69915;54.862;10.730;2023-08-12T00:30:17;101550.22;;;18.03;87.23
80566;BME280;69915;54.862;10.730;2023-08-12T00:32:43;101551.22;;;18.07;87.42
80566;BME280;69915;54.862;10.730;2023-08-12T00:35:08;101566.53;;;18.21;86.97
80566;BME280;69915;54.862;10.730;2023-08-12T00:37:34;101549.75;;;18.09;86.84
80566;BME280;69915;54.862;10.730;2023-08-12T00:39:59;101566.34;;;18.18;87.01
80566;BME280;69915;54.862;10.730;2023-08-12T00:42:25;101540.94;;;18.07;87.18
80566;BME280;69915;54.862;10.730;2023-08-12T00:44:50;101543.56;;;18.04;87.25
80566;BME280;69915;54.862;10.730;2023-08-12T00:47:16;101545.34;;;18.00;87.44
80566;BME280;69915;54.862;10.730;2023-08-12T00:49:42;101553.81;;;18.03;87.52
80566;BME280;69915;54.862;10.730;2023-08-12T00:52:12;101540.75;;;17.86;87.74
80566;BME280;69915;54.862;10.730;2023-08-12T00:54:38;101560.47;;;17.93;88.10
80566;BME280;69915;54.862;10.730;2023-08-12T00:57:05;101553.47;;;17.96;87.93
80566;BME280;69915;54.862;10.730;2023-08-12T00:59:32;101546.44;;;17.90;88.10
80566;BME280;69915;54.862;10.730;2023-08-12T01:02:00;101560.81;;;18.01;88.11
80566;BME280;69915;54.862;10.730;2023-08-12T01:04:26;101578.25;;;18.10;87.92
80566;BME280;69915;54.862;10.730;2023-08-12T01:06:51;101567.66;;;18.12;87.56
80566;BME280;69915;54.862;10.730;2023-08-12T01:09:17;101538.81;;;17.95;87.55
80566;BME280;69915;54.862;10.730;2023-08-12T01:11:51;101562.59;;;18.14;87.35
80566;BME280;69915;54.862;10.730;2023-08-12T01:17:11;101566.84;;;18.11;87.56
80566;BME280;69915;54.862;10.730;2023-08-12T01:19:40;101546.47;;;17.99;87.56
80566;BME280;69915;54.862;10.730;2023-08-12T01:22:10;101567.66;;;18.12;87.53
80566;BME280;69915;54.862;10.730;2023-08-12T01:24:40;101575.66;;;18.13;87.76
80566;BME280;69915;54.862;10.730;2023-08-12T01:27:07;101577.44;;;18.18;87.43
80566;BME280;69915;54.862;10.730;2023-08-12T01:29:34;101582.31;;;18.21;87.00
80566;BME280;69915;54.862;10.730;2023-08-12T01:37:04;101592.75;;;18.24;85.99
80566;BME280;69915;54.862;10.730;2023-08-12T01:39:33;101599.28;;;18.28;85.55
80566;BME280;69915;54.862;10.730;2023-08-12T01:42:01;101604.81;;;18.36;85.66
80566;BME280;69915;54.862;10.730;2023-08-12T01:44:26;101614.25;;;18.44;85.22
80566;BME280;69915;54.862;10.730;2023-08-12T01:50:10;101593.25;;;18.43;84.78
80566;BME280;69915;54.862;10.730;2023-08-12T01:52:36;101592.25;;;18.39;85.44
80566;BME280;69915;54.862;10.730;2023-08-12T01:55:01;101583.63;;;18.32;85.73
80566;BME280;69915;54.862;10.730;2023-08-12T01:57:27;101593.41;;;18.38;86.14
80566;BME280;69915;54.862;10.730;2023-08-12T01:59:52;101589.16;;;18.23;86.38
80566;BME280;69915;54.862;10.730;2023-08-12T02:02:18;101592.09;;;18.27;87.24
80566;BME280;69915;54.862;10.730;2023-08-12T02:04:43;101587.84;;;18.21;87.94
80566;BME280;69915;54.862;10.730;2023-08-12T02:07:09;101579.06;;;18.10;88.45
80566;BME280;69915;54.862;10.730;2023-08-12T02:09:36;101585.38;;;18.11;88.83
80566;BME280;69915;54.862;10.730;2023-08-12T02:12:02;101574.13;;;17.99;89.12
80566;BME280;69915;54.862;10.730;2023-08-12T02:14:27;101556.69;;;17.89;89.51
80566;BME280;69915;54.862;10.730;2023-08-12T02:16:53;101554.91;;;17.76;89.84
80566;BME280;69915;54.862;10.730;2023-08-12T02:19:18;101573.13;;;17.86;90.42
80566;BME280;69915;54.862;10.730;2023-08-12T02:21:44;101561.09;;;17.90;90.07
80566;BME280;69915;54.862;10.730;2023-08-12T02:24:09;101541.09;;;17.93;89.31
80566;BME280;69915;54.862;10.730;2023-08-12T02:26:35;101544.84;;;17.98;89.58
80566;BME280;69915;54.862;10.730;2023-08-12T02:29:00;101565.69;;;18.04;89.66
80566;BME280;69915;54.862;10.730;2023-08-12T02:31:26;101546.94;;;17.92;89.56
80566;BME280;69915;54.862;10.730;2023-08-12T02:33:51;101539.59;;;17.79;90.45
80566;BME280;69915;54.862;10.730;2023-08-12T02:36:17;101531.78;;;17.72;90.74
80566;BME280;69915;54.862;10.730;2023-08-12T02:38:42;101521.81;;;17.63;91.56
80566;BME280;69915;54.862;10.730;2023-08-12T02:41:08;101477.13;;;17.30;91.78
80566;BME280;69915;54.862;10.730;2023-08-12T02:43:34;101511.16;;;17.48;92.23
80566;BME280;69915;54.862;10.730;2023-08-12T02:45:59;101511.00;;;17.53;91.62
80566;BME280;69915;54.862;10.730;2023-08-12T02:48:24;101522.78;;;17.58;91.89
80566;BME280;69915;54.862;10.730;2023-08-12T02:50:50;101499.94;;;17.53;91.96
80566;BME280;69915;54.862;10.730;2023-08-12T02:53:16;101499.78;;;17.49;91.88
80566;BME280;69915;54.862;10.730;2023-08-12T02:55:41;101494.09;;;17.46;92.08
80566;BME280;69915;54.862;10.730;2023-08-12T02:58:06;101494.88;;;17.46;92.32
80566;BME280;69915;54.862;10.730;2023-08-12T03:00:32;101489.22;;;17.42;92.45
80566;BME280;69915;54.862;10.730;2023-08-12T03:02:57;101490.16;;;17.47;91.93
80566;BME280;69915;54.862;10.730;2023-08-12T03:05:23;101471.28;;;17.40;92.29
80566;BME280;69915;54.862;10.730;2023-08-12T03:07:49;101460.38;;;17.35;92.12
80566;BME280;69915;54.862;10.730;2023-08-12T03:10:17;101483.34;;;17.44;92.14
80566;BME280;69915;54.862;10.730;2023-08-12T03:12:43;101471.78;;;17.33;91.92
80566;BME280;69915;54.862;10.730;2023-08-12T03:15:10;101479.25;;;17.33;92.25
80566;BME280;69915;54.862;10.730;2023-08-12T03:17:35;101488.38;;;17.42;92.27
80566;BME280;69915;54.862;10.730;2023-08-12T03:20:04;101479.13;;;17.47;91.56
80566;BME280;69915;54.862;10.730;2023-08-12T03:22:30;101465.63;;;17.45;91.74
80566;BME280;69915;54.862;10.730;2023-08-12T03:24:56;101451.00;;;17.45;91.18
80566;BME280;69915;54.862;10.730;2023-08-12T03:27:21;101469.88;;;17.51;91.34
80566;BME280;69915;54.862;10.730;2023-08-12T03:29:47;101465.94;;;17.52;91.23
80566;BME280;69915;54.862;10.730;2023-08-12T03:32:13;101438.91;;;17.32;91.56
80566;BME280;69915;54.862;10.730;2023-08-12T03:34:38;101444.94;;;17.34;91.39
80566;BME280;69915;54.862;10.730;2023-08-12T03:37:04;101471.47;;;17.52;90.89
80566;BME280;69915;54.862;10.730;2023-08-12T03:39:29;101442.69;;;17.45;90.74
80566;BME280;69915;54.862;10.730;2023-08-12T03:41:54;101458.38;;;17.58;90.68
80566;BME280;69915;54.862;10.730;2023-08-12T03:44:20;101454.88;;;17.52;90.63
80566;BME280;69915;54.862;10.730;2023-08-12T03:46:45;101453.41;;;17.46;90.27
80566;BME280;69915;54.862;10.730;2023-08-12T03:49:11;101456.81;;;17.43;90.41
80566;BME280;69915;54.862;10.730;2023-08-12T03:51:36;101461.97;;;17.58;90.23
80566;BME280;69915;54.862;10.730;2023-08-12T03:54:02;101448.88;;;17.50;90.26
80566;BME280;69915;54.862;10.730;2023-08-12T03:56:29;101445.75;;;17.34;90.73
80566;BME280;69915;54.862;10.730;2023-08-12T03:58:54;101488.06;;;17.43;90.74
80566;BME280;69915;54.862;10.730;2023-08-12T04:01:20;101498.66;;;17.50;90.55
80566;BME280;69915;54.862;10.730;2023-08-12T04:03:45;101501.28;;;17.55;90.64
80566;BME280;69915;54.862;10.730;2023-08-12T04:06:11;101521.34;;;17.61;90.09
80566;BME280;69915;54.862;10.730;2023-08-12T04:08:36;101513.69;;;17.58;90.42
80566;BME280;69915;54.862;10.730;2023-08-12T04:11:02;101480.28;;;17.54;90.06
80566;BME280;69915;54.862;10.730;2023-08-12T04:13:27;101490.09;;;17.60;89.88
80566;BME280;69915;54.862;10.730;2023-08-12T04:15:54;101472.94;;;17.50;89.91
80566;BME280;69915;54.862;10.730;2023-08-12T04:18:20;101496.75;;;17.68;90.08
80566;BME280;69915;54.862;10.730;2023-08-12T04:20:46;101477.41;;;17.59;90.13
80566;BME280;69915;54.862;10.730;2023-08-12T04:23:13;101491.56;;;17.66;90.36
80566;BME280;69915;54.862;10.730;2023-08-12T04:25:38;101477.09;;;17.69;90.17
80566;BME280;69915;54.862;10.730;2023-08-12T04:28:04;101480.03;;;17.64;90.19
80566;BME280;69915;54.862;10.730;2023-08-12T04:30:29;101482.81;;;17.73;89.44
80566;BME280;69915;54.862;10.730;2023-08-12T04:32:55;101490.47;;;17.84;89.24
80566;BME280;69915;54.862;10.730;2023-08-12T04:35:20;101460.84;;;17.76;89.12
80566;BME280;69915;54.862;10.730;2023-08-12T04:37:45;101473.53;;;17.77;89.44
80566;BME280;69915;54.862;10.730;2023-08-12T04:40:11;101491.47;;;17.88;88.64
80566;BME280;69915;54.862;10.730;2023-08-12T04:42:36;101476.97;;;17.91;88.77
80566;BME280;69915;54.862;10.730;2023-08-12T04:45:02;101467.03;;;17.90;89.07
80566;BME280;69915;54.862;10.730;2023-08-12T04:47:28;101487.69;;;18.02;89.40
80566;BME280;69915;54.862;10.730;2023-08-12T04:49:54;101478.44;;;17.98;89.73
80566;BME280;69915;54.862;10.730;2023-08-12T04:52:20;101480.41;;;17.97;89.84
80566;BME280;69915;54.862;10.730;2023-08-12T04:54:46;101482.19;;;18.19;89.29
80566;BME280;69915;54.862;10.730;2023-08-12T05:00:21;101476.97;;;18.09;88.82
80566;BME280;69915;54.862;10.730;2023-08-12T05:02:47;101464.09;;;18.04;89.17
80566;BME280;69915;54.862;10.730;2023-08-12T05:05:12;101484.63;;;18.12;89.13
80566;BME280;69915;54.862;10.730;2023-08-12T05:07:38;101485.75;;;18.11;89.41
80566;BME280;69915;54.862;10.730;2023-08-12T05:10:04;101473.56;;;17.94;89.64
80566;BME280;69915;54.862;10.730;2023-08-12T05:12:29;101488.69;;;18.06;89.47
80566;BME280;69915;54.862;10.730;2023-08-12T05:14:55;101475.16;;;17.95;89.69
80566;BME280;69915;54.862;10.730;2023-08-12T05:17:21;101471.91;;;17.93;89.93
80566;BME280;69915;54.862;10.730;2023-08-12T05:19:46;101476.81;;;17.97;89.62
80566;BME280;69915;54.862;10.730;2023-08-12T05:22:12;101449.44;;;17.86;89.43
80566;BME280;69915;54.862;10.730;2023-08-12T05:24:37;101444.56;;;17.83;89.90
80566;BME280;69915;54.862;10.730;2023-08-12T05:27:03;101462.81;;;18.02;89.62
80566;BME280;69915;54.862;10.730;2023-08-12T05:29:30;101452.91;;;18.01;89.65
80566;BME280;69915;54.862;10.730;2023-08-12T05:31:55;101461.84;;;18.15;89.64
80566;BME280;69915;54.862;10.730;2023-08-12T05:34:21;101427.47;;;17.99;89.69
80566;BME280;69915;54.862;10.730;2023-08-12T05:36:46;101442.31;;;18.03;89.96
80566;BME280;69915;54.862;10.730;2023-08-12T05:39:12;101452.72;;;17.97;89.58
80566;BME280;69915;54.862;10.730;2023-08-12T05:41:37;101459.38;;;18.05;89.80
80566;BME280;69915;54.862;10.730;2023-08-12T05:44:03;101458.72;;;17.99;90.29
80566;BME280;69915;54.862;10.730;2023-08-12T05:46:29;101447.50;;;17.87;91.54
80566;BME280;69915;54.862;10.730;2023-08-12T05:48:55;101448.31;;;17.79;91.94
80566;BME280;69915;54.862;10.730;2023-08-12T05:51:20;101441.97;;;17.78;92.42
80566;BME280;69915;54.862;10.730;2023-08-12T05:53:46;101418.19;;;17.60;92.72
80566;BME280;69915;54.862;10.730;2023-08-12T05:56:11;101429.25;;;17.69;93.21
80566;BME280;69915;54.862;10.730;2023-08-12T05:58:37;101417.84;;;17.62;93.47
80566;BME280;69915;54.862;10.730;2023-08-12T06:01:02;101418.19;;;17.77;93.40
80566;BME280;69915;54.862;10.730;2023-08-12T06:03:28;101438.06;;;17.97;93.25
80566;BME280;69915;54.862;10.730;2023-08-12T06:05:53;101430.59;;;18.06;93.17
80566;BME280;69915;54.862;10.730;2023-08-12T06:08:19;101429.44;;;18.07;92.72
80566;BME280;69915;54.862;10.730;2023-08-12T06:10:44;101423.25;;;17.92;92.47
80566;BME280;69915;54.862;10.730;2023-08-12T06:13:10;101429.44;;;17.98;92.11
80566;BME280;69915;54.862;10.730;2023-08-12T06:15:36;101439.69;;;18.15;91.97
80566;BME280;69915;54.862;10.730;2023-08-12T06:18:02;101443.56;;;18.39;91.52
80566;BME280;69915;54.862;10.730;2023-08-12T06:20:34;101370.19;;;17.99;90.34
80566;BME280;69915;54.862;10.730;2023-08-12T06:23:02;101381.41;;;18.11;89.66
80566;BME280;69915;54.862;10.730;2023-08-12T06:25:31;101355.88;;;18.06;89.13
80566;BME280;69915;54.862;10.730;2023-08-12T06:27:59;101391.97;;;18.26;89.42
80566;BME280;69915;54.862;10.730;2023-08-12T06:30:24;101381.25;;;18.25;89.46
80566;BME280;69915;54.862;10.730;2023-08-12T06:32:50;101400.56;;;18.51;89.08
80566;BME280;69915;54.862;10.730;2023-08-12T06:35:15;101356.13;;;18.38;88.15
80566;BME280;69915;54.862;10.730;2023-08-12T06:37:41;101368.28;;;18.63;88.10
80566;BME280;69915;54.862;10.730;2023-08-12T06:40:07;101383.72;;;18.73;88.03
80566;BME280;69915;54.862;10.730;2023-08-12T06:42:32;101380.25;;;18.84;87.31
80566;BME280;69915;54.862;10.730;2023-08-12T06:44:59;101400.34;;;19.11;87.38
80566;BME280;69915;54.862;10.730;2023-08-12T06:47:25;101398.41;;;19.02;86.75
80566;BME280;69915;54.862;10.730;2023-08-12T06:49:52;101407.50;;;19.12;86.96
80566;BME280;69915;54.862;10.730;2023-08-12T06:52:18;101392.59;;;18.95;87.79
80566;BME280;69915;54.862;10.730;2023-08-12T06:54:43;101411.66;;;18.97;88.62
80566;BME280;69915;54.862;10.730;2023-08-12T06:57:09;101414.63;;;18.92;88.10
80566;BME280;69915;54.862;10.730;2023-08-12T06:59:34;101421.50;;;18.86;87.20
80566;BME280;69915;54.862;10.730;2023-08-12T07:01:59;101424.09;;;18.82;87.13
80566;BME280;69915;54.862;10.730;2023-08-12T07:04:25;101424.63;;;18.76;87.34
80566;BME280;69915;54.862;10.730;2023-08-12T07:06:51;101420.59;;;18.65;87.56
80566;BME280;69915;54.862;10.730;2023-08-12T07:09:16;101430.31;;;18.79;87.40
80566;BME280;69915;54.862;10.730;2023-08-12T07:11:42;101416.34;;;18.67;87.72
80566;BME280;69915;54.862;10.730;2023-08-12T07:14:07;101412.91;;;18.70;87.65
80566;BME280;69915;54.862;10.730;2023-08-12T07:16:33;101435.41;;;18.60;88.44
80566;BME280;69915;54.862;10.730;2023-08-12T07:18:58;101430.72;;;18.43;89.21
80566;BME280;69915;54.862;10.730;2023-08-12T07:21:24;101446.84;;;18.33;89.90
80566;BME280;69915;54.862;10.730;2023-08-12T07:23:49;101440.84;;;18.05;91.08
80566;BME280;69915;54.862;10.730;2023-08-12T07:26:15;101444.91;;;18.08;91.09
80566;BME280;69915;54.862;10.730;2023-08-12T07:28:41;101437.75;;;18.07;92.05
80566;BME280;69915;54.862;10.730;2023-08-12T07:31:07;101433.19;;;18.02;92.06
80566;BME280;69915;54.862;10.730;2023-08-12T07:33:32;101422.78;;;17.90;92.95
80566;BME280;69915;54.862;10.730;2023-08-12T07:35:57;101423.91;;;17.89;93.59
80566;BME280;69915;54.862;10.730;2023-08-12T07:38:23;101419.53;;;17.88;93.67
80566;BME280;69915;54.862;10.730;2023-08-12T07:40:49;101440.84;;;17.97;93.87
80566;BME280;69915;54.862;10.730;2023-08-12T07:43:15;101427.31;;;17.95;93.76
80566;BME280;69915;54.862;10.730;2023-08-12T07:45:40;101423.75;;;17.94;94.17
80566;BME280;69915;54.862;10.730;2023-08-12T07:48:06;101428.94;;;18.05;94.34
80566;BME280;69915;54.862;10.730;2023-08-12T07:50:31;101431.22;;;18.03;93.51
80566;BME280;69915;54.862;10.730;2023-08-12T07:52:57;101413.81;;;18.02;94.13
80566;BME280;69915;54.862;10.730;2023-08-12T07:55:22;101406.16;;;17.90;94.03
80566;BME280;69915;54.862;10.730;2023-08-12T07:57:47;101423.09;;;17.98;94.03
80566;BME280;69915;54.862;10.730;2023-08-12T08:00:13;101420.34;;;18.06;94.32
80566;BME280;69915;54.862;10.730;2023-08-12T08:02:38;101406.47;;;18.23;94.11
80566;BME280;69915;54.862;10.730;2023-08-12T08:05:04;101405.78;;;18.52;93.01
80566;BME280;69915;54.862;10.730;2023-08-12T08:07:30;101415.78;;;18.82;91.89
80566;BME280;69915;54.862;10.730;2023-08-12T08:09:57;101430.75;;;18.98;90.21
80566;BME280;69915;54.862;10.730;2023-08-12T08:12:22;101440.50;;;19.05;90.12
80566;BME280;69915;54.862;10.730;2023-08-12T08:14:48;101422.22;;;19.03;89.33
80566;BME280;69915;54.862;10.730;2023-08-12T08:17:13;101432.66;;;19.07;90.35
80566;BME280;69915;54.862;10.730;2023-08-12T08:19:38;101429.91;;;18.98;89.55
80566;BME280;69915;54.862;10.730;2023-08-12T08:22:04;101440.38;;;18.92;90.12
80566;BME280;69915;54.862;10.730;2023-08-12T08:24:30;101440.38;;;18.92;89.53
80566;BME280;69915;54.862;10.730;2023-08-12T08:26:56;101425.56;;;18.88;90.26
80566;BME280;69915;54.862;10.730;2023-08-12T08:29:22;101436.13;;;18.95;90.08
80566;BME280;69915;54.862;10.730;2023-08-12T08:31:48;101412.16;;;18.90;90.40
80566;BME280;69915;54.862;10.730;2023-08-12T08:34:15;101423.09;;;18.95;89.91
80566;BME280;69915;54.862;10.730;2023-08-12T08:36:40;101425.00;;;19.03;90.24
80566;BME280;69915;54.862;10.730;2023-08-12T08:39:06;101432.53;;;19.32;89.73
80566;BME280;69915;54.862;10.730;2023-08-12T08:41:32;101415.91;;;19.32;88.47
80566;BME280;69915;54.862;10.730;2023-08-12T08:44:03;101431.16;;;19.47;88.62
80566;BME280;69915;54.862;10.730;2023-08-12T08:46:32;101437.78;;;19.54;88.66
80566;BME280;69915;54.862;10.730;2023-08-12T08:48:59;101422.03;;;19.46;88.23
80566;BME280;69915;54.862;10.730;2023-08-12T08:51:27;101428.19;;;19.52;88.09
80566;BME280;69915;54.862;10.730;2023-08-12T08:53:56;101433.47;;;19.36;88.37
80566;BME280;69915;54.862;10.730;2023-08-12T08:56:22;101428.44;;;19.30;89.28
80566;BME280;69915;54.862;10.730;2023-08-12T08:58:47;101418.41;;;19.17;89.38
80566;BME280;69915;54.862;10.730;2023-08-12T09:01:14;101420.75;;;19.06;89.50
80566;BME280;69915;54.862;10.730;2023-08-12T09:03:41;101405.16;;;18.93;89.89
80566;BME280;69915;54.862;10.730;2023-08-12T09:06:07;101423.72;;;19.01;91.22
80566;BME280;69915;54.862;10.730;2023-08-12T09:08:34;101406.41;;;19.04;91.36
80566;BME280;69915;54.862;10.730;2023-08-12T09:11:01;101414.16;;;19.19;91.23
80566;BME280;69915;54.862;10.730;2023-08-12T09:13:27;101403.50;;;19.30;91.08
80566;BME280;69915;54.862;10.730;2023-08-12T09:15:53;101401.22;;;19.32;91.10
80566;BME280;69915;54.862;10.730;2023-08-12T09:18:19;101412.09;;;19.37;90.06
80566;BME280;69915;54.862;10.730;2023-08-12T09:20:52;101386.59;;;19.23;90.50
80566;BME280;69915;54.862;10.730;2023-08-12T09:23:19;101394.91;;;19.23;90.38
80566;BME280;69915;54.862;10.730;2023-08-12T09:25:45;101399.69;;;19.14;91.12
80566;BME280;69915;54.862;10.730;2023-08-12T09:28:11;101377.31;;;18.89;91.55
80566;BME280;69915;54.862;10.730;2023-08-12T09:30:38;101383.94;;;18.97;92.23
80566;BME280;69915;54.862;10.730;2023-08-12T09:33:05;101381.75;;;19.11;91.32
80566;BME280;69915;54.862;10.730;2023-08-12T09:35:38;101356.59;;;18.95;91.15
80566;BME280;69915;54.862;10.730;2023-08-12T09:38:05;101363.25;;;18.94;92.26
80566;BME280;69915;54.862;10.730;2023-08-12T09:40:35;101346.28;;;18.67;92.65
80566;BME280;69915;54.862;10.730;2023-08-12T09:43:01;101354.78;;;18.62;92.80
80566;BME280;69915;54.862;10.730;2023-08-12T09:45:27;101380.75;;;18.78;93.75
80566;BME280;69915;54.862;10.730;2023-08-12T09:47:54;101378.88;;;18.61;93.53
80566;BME280;69915;54.862;10.730;2023-08-12T09:50:26;101353.66;;;18.54;94.24
80566;BME280;69915;54.862;10.730;2023-08-12T09:52:53;101343.50;;;18.67;94.45
80566;BME280;69915;54.862;10.730;2023-08-12T09:55:20;101346.44;;;18.70;92.87
80566;BME280;69915;54.862;10.730;2023-08-12T09:57:48;101353.72;;;18.75;91.29
80566;BME280;69915;54.862;10.730;2023-08-12T10:00:16;101374.09;;;19.08;92.15
80566;BME280;69915;54.862;10.730;2023-08-12T10:02:48;101370.31;;;19.42;90.31
80566;BME280;69915;54.862;10.730;2023-08-12T10:05:33;101356.06;;;19.93;88.07
80566;BME280;69915;54.862;10.730;2023-08-12T10:07:59;101357.81;;;20.31;85.86
80566;BME280;69915;54.862;10.730;2023-08-12T10:10:30;101353.25;;;20.59;83.68
80566;BME280;69915;54.862;10.730;2023-08-12T10:12:57;101363.00;;;21.01;82.58
80566;BME280;69915;54.862;10.730;2023-08-12T10:15:29;101368.81;;;21.21;80.83
80566;BME280;69915;54.862;10.730;2023-08-12T10:17:57;101340.75;;;21.26;80.33
80566;BME280;69915;54.862;10.730;2023-08-12T10:20:24;101356.66;;;21.65;79.99
80566;BME280;69915;54.862;10.730;2023-08-12T10:22:50;101324.44;;;21.64;78.63
80566;BME280;69915;54.862;10.730;2023-08-12T10:25:20;101347.03;;;22.02;77.64
80566;BME280;69915;54.862;10.730;2023-08-12T10:27:47;101344.28;;;22.18;79.74
80566;BME280;69915;54.862;10.730;2023-08-12T10:30:13;101366.94;;;22.91;76.89
80566;BME280;69915;54.862;10.730;2023-08-12T10:32:39;101346.63;;;23.25;74.15
80566;BME280;69915;54.862;10.730;2023-08-12T10:35:05;101331.50;;;22.92;73.37
80566;BME280;69915;54.862;10.730;2023-08-12T10:37:33;101344.13;;;23.20;75.42
80566;BME280;69915;54.862;10.730;2023-08-12T10:40:00;101325.97;;;23.46;74.39
80566;BME280;69915;54.862;10.730;2023-08-12T10:42:41;101338.59;;;23.40;74.48
80566;BME280;69915;54.862;10.730;2023-08-12T10:45:08;101334.50;;;23.53;73.76
80566;BME280;69915;54.862;10.730;2023-08-12T10:47:47;101320.72;;;23.79;74.55
80566;BME280;69915;54.862;10.730;2023-08-12T10:50:18;101321.34;;;23.92;74.09
80566;BME280;69915;54.862;10.730;2023-08-12T10:52:44;101328.59;;;24.34;72.60
80566;BME280;69915;54.862;10.730;2023-08-12T10:55:23;101332.50;;;24.75;69.31
80566;BME280;69915;54.862;10.730;2023-08-12T10:57:51;101326.19;;;23.95;71.25
80566;BME280;69915;54.862;10.730;2023-08-12T11:02:53;101321.84;;;23.05;74.24
80566;BME280;69915;54.862;10.730;2023-08-12T11:05:19;101310.72;;;22.58;75.97
80566;BME280;69915;54.862;10.730;2023-08-12T11:07:47;101326.38;;;22.62;75.95
80566;BME280;69915;54.862;10.730;2023-08-12T11:10:19;101332.41;;;22.80;75.44
80566;BME280;69915;54.862;10.730;2023-08-12T11:15:16;101308.91;;;22.18;75.40
80566;BME280;69915;54.862;10.730;2023-08-12T11:17:42;101334.44;;;21.93;77.16
80566;BME280;69915;54.862;10.730;2023-08-12T11:20:10;101317.25;;;21.63;77.02
80566;BME280;69915;54.862;10.730;2023-08-12T11:22:40;101311.31;;;21.37;77.24
80566;BME280;69915;54.862;10.730;2023-08-12T11:25:08;101293.50;;;21.53;76.94
80566;BME280;69915;54.862;10.730;2023-08-12T11:27:44;101284.41;;;21.96;77.68
80566;BME280;69915;54.862;10.730;2023-08-12T11:30:12;101302.09;;;22.32;74.28
80566;BME280;69915;54.862;10.730;2023-08-12T11:32:40;101298.44;;;22.74;74.60
80566;BME280;69915;54.862;10.730;2023-08-12T11:35:07;101263.34;;;22.42;73.53
80566;BME280;69915;54.862;10.730;2023-08-12T11:37:35;101272.13;;;22.60;73.36
80566;BME280;69915;54.862;10.730;2023-08-12T11:40:02;101258.28;;;22.48;75.19
80566;BME280;69915;54.862;10.730;2023-08-12T11:42:28;101267.75;;;22.59;74.34
80566;BME280;69915;54.862;10.730;2023-08-12T11:44:54;101266.59;;;22.29;73.73
80566;BME280;69915;54.862;10.730;2023-08-12T11:47:19;101265.13;;;22.03;76.06
80566;BME280;69915;54.862;10.730;2023-08-12T11:49:45;101280.19;;;22.02;74.11
80566;BME280;69915;54.862;10.730;2023-08-12T11:52:11;101263.69;;;22.09;73.04
80566;BME280;69915;54.862;10.730;2023-08-12T11:54:37;101279.50;;;22.05;73.18
80566;BME280;69915;54.862;10.730;2023-08-12T11:57:03;101277.34;;;22.14;73.92
80566;BME280;69915;54.862;10.730;2023-08-12T11:59:30;101301.31;;;22.03;74.87
80566;BME280;69915;54.862;10.730;2023-08-12T12:01:55;101283.44;;;21.49;75.45
80566;BME280;69915;54.862;10.730;2023-08-12T12:04:21;101276.94;;;21.17;76.56
80566;BME280;69915;54.862;10.730;2023-08-12T12:06:47;101298.25;;;21.13;77.10
80566;BME280;69915;54.862;10.730;2023-08-12T12:09:15;101273.56;;;20.99;76.77
80566;BME280;69915;54.862;10.730;2023-08-12T12:11:43;101290.84;;;21.17;78.76
80566;BME280;69915;54.862;10.730;2023-08-12T12:14:10;101299.50;;;21.28;77.36
80566;BME280;69915;54.862;10.730;2023-08-12T12:19:08;101293.97;;;20.91;79.62
80566;BME280;69915;54.862;10.730;2023-08-12T12:21:41;101293.19;;;20.79;79.18
80566;BME280;69915;54.862;10.730;2023-08-12T12:24:08;101278.94;;;20.56;80.08
80566;BME280;69915;54.862;10.730;2023-08-12T12:26:34;101283.09;;;20.62;80.77
80566;BME280;69915;54.862;10.730;2023-08-12T12:29:00;101277.28;;;20.31;82.33
80566;BME280;69915;54.862;10.730;2023-08-12T12:31:25;101256.56;;;19.83;85.13
80566;BME280;69915;54.862;10.730;2023-08-12T12:33:51;101271.13;;;19.47;87.11
80566;BME280;69915;54.862;10.730;2023-08-12T12:36:16;101276.03;;;19.21;88.67
80566;BME280;69915;54.862;10.730;2023-08-12T12:38:42;101272.78;;;18.98;90.91
80566;BME280;69915;54.862;10.730;2023-08-12T12:41:07;101268.00;;;18.78;90.28
80566;BME280;69915;54.862;10.730;2023-08-12T12:43:32;101264.84;;;18.59;90.80
80566;BME280;69915;54.862;10.730;2023-08-12T12:45:58;101256.75;;;18.45;92.94
80566;BME280;69915;54.862;10.730;2023-08-12T12:48:23;101255.47;;;18.43;93.18
80566;BME280;69915;54.862;10.730;2023-08-12T12:50:49;101266.84;;;18.50;92.92
80566;BME280;69915;54.862;10.730;2023-08-12T12:53:14;101241.16;;;18.32;91.94
80566;BME280;69915;54.862;10.730;2023-08-12T12:55:40;101240.03;;;18.33;92.27
80566;BME280;69915;54.862;10.730;2023-08-12T12:58:05;101245.72;;;18.37;92.66